Time;durP1;ratioP1;P1;durP2;ratioP2;P2;SDS_P1;SDS_P2;PMS_P1;PMS_P2;Temp;Humidity;BMP_temperature;BMP_pressure;BME280_temperature;BME280_humidity;BME280_pressure;Samples;Min_cycle;Max_cycle;Signal;HPM_P1;HPM_P2
2021/05/17 00:00:41;;;;;;;6.47;1.60;;;18.70;54.10;;;;;;5079274;28;20060;-77
2021/05/17 00:03:08;;;;;;;8.65;2.25;;;18.70;54.20;;;;;;5091587;28;20028;-77
2021/05/17 00:05:35;;;;;;;2.92;1.30;;;18.70;54.00;;;;;;5091260;28;20099;-79
2021/05/17 00:08:03;;;;;;;1.48;1.20;;;18.70;54.20;;;;;;5077553;28;20076;-76
2021/05/17 00:10:30;;;;;;;9.38;2.08;;;18.60;54.10;;;;;;5083722;28;20025;-77
2021/05/17 00:12:56;;;;;;;3.63;1.58;;;18.60;54.10;;;;;;5086949;28;20459;-75
2021/05/17 00:15:23;;;;;;;5.97;1.60;;;18.50;54.20;;;;;;5088978;28;20383;-75
2021/05/17 00:17:51;;;;;;;3.00;1.27;;;18.40;54.50;;;;;;5095556;28;20016;-76
2021/05/17 00:20:18;;;;;;;5.13;1.73;;;18.40;54.60;;;;;;5074735;28;20155;-77
2021/05/17 00:22:45;;;;;;;3.45;1.50;;;18.30;54.90;;;;;;5093880;28;20076;-77
2021/05/17 00:25:12;;;;;;;5.90;1.95;;;18.10;55.00;;;;;;5094436;28;20470;-75
2021/05/17 00:27:39;;;;;;;1.70;1.25;;;18.00;55.60;;;;;;5069634;28;20024;-76
2021/05/17 00:30:06;;;;;;;7.97;1.77;;;17.90;55.60;;;;;;5078737;28;20078;-76
2021/05/17 00:32:33;;;;;;;3.97;1.33;;;17.90;56.10;;;;;;5073342;28;20058;-75
2021/05/17 00:35:00;;;;;;;2.92;1.27;;;17.80;56.10;;;;;;5091385;28;20028;-77
2021/05/17 00:37:27;;;;;;;1.25;1.15;;;17.80;56.20;;;;;;5086542;28;20032;-77
2021/05/17 00:39:54;;;;;;;6.13;1.60;;;17.80;56.30;;;;;;5077481;28;20032;-76
2021/05/17 00:42:22;;;;;;;3.25;1.38;;;17.80;56.20;;;;;;5092081;28;20020;-75
2021/05/17 00:44:49;;;;;;;4.55;1.50;;;17.70;56.30;;;;;;5074362;28;20020;-75
2021/05/17 00:47:16;;;;;;;2.97;1.63;;;17.80;56.40;;;;;;5094339;28;20482;-76
2021/05/17 00:49:45;;;;;;;1.65;1.45;;;17.70;56.40;;;;;;5087225;28;20531;-78
2021/05/17 00:52:17;;;;;;;4.95;1.77;;;17.70;56.50;;;;;;5090674;28;20020;-76
2021/05/17 00:54:44;;;;;;;3.13;1.63;;;17.60;56.70;;;;;;5090790;28;20126;-75
2021/05/17 00:57:11;;;;;;;1.77;1.55;;;17.50;57.20;;;;;;5086182;28;20037;-76
2021/05/17 00:59:38;;;;;;;1.05;1.02;;;17.40;57.20;;;;;;5091644;28;20351;-76
2021/05/17 01:02:05;;;;;;;2.85;1.50;;;17.30;57.50;;;;;;5080865;28;20524;-78
2021/05/17 01:04:31;;;;;;;1.70;1.10;;;17.30;57.70;;;;;;5089734;28;20367;-77
2021/05/17 01:06:59;;;;;;;2.45;1.70;;;17.20;57.80;;;;;;5079708;28;20439;-77
2021/05/17 01:09:32;;;;;;;1.50;1.40;;;17.10;58.10;;;;;;5078470;28;20066;-77
2021/05/17 01:11:58;;;;;;;;;;;17.00;58.30;;;;;;5073918;28;20454;-75
2021/05/17 01:14:25;;;;;;;5.78;2.22;;;17.10;58.60;;;;;;5073624;28;19924;-77
2021/05/17 01:16:54;;;;;;;3.50;1.77;;;17.00;58.50;;;;;;5078128;28;20027;-77
2021/05/17 01:19:46;;;;;;;3.30;1.42;;;17.00;58.60;;;;;;5091456;28;20102;-77
2021/05/17 01:22:22;;;;;;;3.55;1.80;;;17.00;58.70;;;;;;5078496;28;20077;-76
2021/05/17 01:24:50;;;;;;;6.25;1.40;;;17.00;58.70;;;;;;5078810;28;20515;-77
2021/05/17 01:27:17;;;;;;;1.55;1.10;;;17.00;58.70;;;;;;5094737;28;20075;-76
2021/05/17 01:29:44;;;;;;;2.45;1.40;;;17.00;58.80;;;;;;5078073;28;20095;-77
2021/05/17 01:32:11;;;;;;;3.60;1.40;;;17.00;58.90;;;;;;5073576;28;20028;-77
2021/05/17 01:34:38;;;;;;;4.10;1.70;;;17.00;59.00;;;;;;5091283;28;20429;-76
2021/05/17 01:37:08;;;;;;;6.50;2.72;;;16.90;59.10;;;;;;5097292;28;20370;-77
2021/05/17 01:39:36;;;;;;;4.63;2.30;;;16.90;59.00;;;;;;5094203;28;20032;-76
2021/05/17 01:42:03;;;;;;;1.63;1.52;;;16.90;59.00;;;;;;5087519;28;20355;-77
2021/05/17 01:44:29;;;;;;;2.55;1.38;;;17.00;59.20;;;;;;5094212;28;20103;-76
2021/05/17 01:46:59;;;;;;;2.58;2.30;;;16.90;59.10;;;;;;5092140;28;20413;-81
2021/05/17 01:49:26;;;;;;;4.93;1.60;;;16.70;59.40;;;;;;5074809;28;20052;-78
2021/05/17 01:51:53;;;;;;;2.15;1.42;;;16.70;59.60;;;;;;5089645;28;20099;-76
2021/05/17 01:54:21;;;;;;;4.03;2.22;;;16.70;59.80;;;;;;5084892;28;20039;-76
2021/05/17 01:56:48;;;;;;;3.25;1.45;;;16.70;60.00;;;;;;5091782;28;20043;-77
2021/05/17 01:59:26;;;;;;;2.72;1.40;;;16.80;59.80;;;;;;5078389;28;20093;-79
2021/05/17 02:01:53;;;;;;;1.50;1.40;;;16.60;59.70;;;;;;5094006;28;20022;-79
2021/05/17 02:04:20;;;;;;;3.08;2.33;;;16.70;59.90;;;;;;5092388;28;20020;-77
2021/05/17 02:06:47;;;;;;;4.45;1.40;;;16.60;59.90;;;;;;5084047;28;20036;-77
2021/05/17 02:09:16;;;;;;;1.58;1.27;;;16.60;59.90;;;;;;5097050;28;20069;-78
2021/05/17 02:11:42;;;;;;;1.52;1.42;;;16.50;60.10;;;;;;5091800;28;20466;-78
2021/05/17 02:14:09;;;;;;;4.18;2.67;;;16.30;60.30;;;;;;5090131;28;20024;-78
2021/05/17 02:16:36;;;;;;;2.65;2.03;;;16.30;60.60;;;;;;5083567;28;20306;-80
2021/05/17 02:19:03;;;;;;;1.63;1.52;;;16.50;60.70;;;;;;5092246;28;20028;-78
2021/05/17 02:21:30;;;;;;;4.30;1.55;;;16.40;60.70;;;;;;5092538;28;20024;-78
2021/05/17 02:23:56;;;;;;;2.13;1.38;;;16.40;60.70;;;;;;5095681;28;20024;-77
2021/05/17 02:26:23;;;;;;;1.88;1.77;;;16.40;60.70;;;;;;5089455;28;20020;-78
2021/05/17 02:28:50;;;;;;;2.10;1.80;;;16.30;61.00;;;;;;5101743;28;20045;-78
2021/05/17 02:31:17;;;;;;;2.13;2.03;;;16.20;61.20;;;;;;5081626;28;20040;-78
2021/05/17 02:33:43;;;;;;;3.75;1.90;;;16.20;61.40;;;;;;5100348;28;20021;-77
2021/05/17 02:36:10;;;;;;;1.58;1.38;;;16.20;61.70;;;;;;5097821;28;20028;-78
2021/05/17 02:38:37;;;;;;;3.97;3.38;;;16.10;61.60;;;;;;5098694;28;20051;-76
2021/05/17 02:41:05;;;;;;;3.45;1.92;;;16.00;61.40;;;;;;5100773;28;20467;-78
2021/05/17 02:43:32;;;;;;;2.17;1.98;;;16.00;61.70;;;;;;5078882;28;20032;-77
2021/05/17 02:46:01;;;;;;;6.55;2.13;;;16.00;62.00;;;;;;5094983;28;20463;-79
2021/05/17 02:48:29;;;;;;;6.90;2.10;;;15.90;61.70;;;;;;5083066;28;20052;-74
2021/05/17 02:50:57;;;;;;;2.30;1.55;;;16.00;62.40;;;;;;5095379;28;20023;-80
2021/05/17 02:53:37;;;;;;;1.35;1.30;;;15.90;62.40;;;;;;5098732;28;20101;-79
2021/05/17 02:56:14;;;;;;;2.90;1.92;;;15.80;62.80;;;;;;5079802;28;20060;-79
2021/05/17 02:58:44;;;;;;;7.68;1.92;;;15.70;63.10;;;;;;5077497;28;20141;-80
2021/05/17 03:01:25;;;;;;;3.28;2.17;;;15.80;63.40;;;;;;5096848;28;20035;-78
2021/05/17 03:03:55;;;;;;;2.25;2.08;;;15.70;63.60;;;;;;5072316;28;20024;-78
2021/05/17 03:06:21;;;;;;;3.42;2.10;;;15.70;63.50;;;;;;5080204;28;20035;-77
2021/05/17 03:08:59;;;;;;;3.38;1.73;;;15.60;63.60;;;;;;5111165;28;20039;-78
2021/05/17 03:11:28;;;;;;;2.25;1.67;;;15.70;63.90;;;;;;5112708;28;20027;-79
2021/05/17 03:13:56;;;;;;;6.45;2.50;;;15.60;64.00;;;;;;5086391;28;20028;-79
2021/05/17 03:16:23;;;;;;;1.95;1.77;;;15.60;64.60;;;;;;5095717;28;20028;-79
2021/05/17 03:18:51;;;;;;;3.58;2.17;;;15.60;63.90;;;;;;5098811;28;20032;-80
2021/05/17 03:21:21;;;;;;;5.20;2.55;;;15.50;64.00;;;;;;5093513;28;20036;-78
2021/05/17 03:23:49;;;;;;;9.95;1.88;;;15.50;64.50;;;;;;5092714;28;20405;-79
2021/05/17 03:26:19;;;;;;;3.40;2.17;;;15.40;64.30;;;;;;5094807;28;20077;-80
2021/05/17 03:28:46;;;;;;;2.72;2.15;;;15.40;64.50;;;;;;5099136;28;20017;-78
2021/05/17 03:31:12;;;;;;;3.42;2.10;;;15.30;64.50;;;;;;5098985;28;20020;-78
2021/05/17 03:33:39;;;;;;;2.88;1.83;;;15.40;64.90;;;;;;5098837;28;20016;-80
2021/05/17 03:36:05;;;;;;;2.33;1.70;;;15.30;64.90;;;;;;5074881;28;20103;-80
2021/05/17 03:38:33;;;;;;;3.63;3.08;;;15.30;65.00;;;;;;5087191;28;20150;-79
2021/05/17 03:40:59;;;;;;;3.08;2.10;;;15.30;65.00;;;;;;5095839;28;20016;-78
2021/05/17 03:43:25;;;;;;;2.67;2.28;;;15.30;65.40;;;;;;5095193;28;20324;-78
2021/05/17 03:45:52;;;;;;;4.65;2.47;;;15.30;65.30;;;;;;5094119;28;20463;-78
2021/05/17 03:48:19;;;;;;;8.07;2.08;;;15.30;65.10;;;;;;5095855;28;20024;-78
2021/05/17 03:50:45;;;;;;;3.20;1.67;;;15.20;65.40;;;;;;5071849;28;20020;-78
2021/05/17 03:53:12;;;;;;;2.03;1.83;;;15.20;65.40;;;;;;5099911;28;20060;-77
2021/05/17 03:55:38;;;;;;;2.47;1.75;;;15.20;65.30;;;;;;5097299;28;20020;-78
2021/05/17 03:58:04;;;;;;;4.40;1.33;;;15.10;65.40;;;;;;5093614;28;20061;-78
2021/05/17 04:00:32;;;;;;;1.58;1.40;;;15.10;65.80;;;;;;5083252;28;20024;-80
2021/05/17 04:03:01;;;;;;;3.35;2.47;;;15.20;65.60;;;;;;5098008;28;20446;-79
2021/05/17 04:05:35;;;;;;;2.35;1.70;;;15.00;65.70;;;;;;5098271;28;20023;-78
2021/05/17 04:13:38;;;;;;;2.65;1.52;;;15.10;65.40;;;;;;5085048;28;20370;-78
2021/05/17 04:16:05;;;;;;;2.50;2.20;;;15.10;65.60;;;;;;5090812;28;20510;-77
2021/05/17 04:18:32;;;;;;;4.82;2.08;;;15.20;66.00;;;;;;5079569;28;20051;-79
2021/05/17 04:20:58;;;;;;;2.28;1.92;;;15.10;66.20;;;;;;5079818;28;20040;-79
2021/05/17 04:23:26;;;;;;;3.88;2.17;;;15.00;65.60;;;;;;5098049;28;20504;-78
2021/05/17 04:25:53;;;;;;;3.80;2.10;;;15.10;65.90;;;;;;5097812;28;20024;-78
2021/05/17 04:28:21;;;;;;;2.13;1.95;;;15.00;66.40;;;;;;5097025;28;20473;-79
2021/05/17 04:30:47;;;;;;;2.00;1.80;;;15.10;65.90;;;;;;5097546;28;20024;-78
2021/05/17 04:33:14;;;;;;;1.98;1.65;;;15.00;66.10;;;;;;5094783;28;20024;-78
2021/05/17 04:35:41;;;;;;;2.13;1.83;;;15.00;66.40;;;;;;5096406;28;20020;-78
2021/05/17 04:38:07;;;;;;;1.80;1.30;;;14.90;66.30;;;;;;5097620;28;20016;-78
2021/05/17 04:40:34;;;;;;;11.10;2.53;;;15.00;66.80;;;;;;5093485;28;20042;-78
2021/05/17 04:43:00;;;;;;;5.32;2.25;;;14.90;66.80;;;;;;5082966;28;20016;-76
2021/05/17 04:45:27;;;;;;;2.72;1.90;;;14.90;66.90;;;;;;5099780;28;20015;-78
2021/05/17 04:47:54;;;;;;;1.83;1.60;;;14.80;67.10;;;;;;5112118;28;20031;-78
2021/05/17 04:50:21;;;;;;;2.05;1.95;;;14.80;66.80;;;;;;5092624;28;20355;-77
2021/05/17 04:52:47;;;;;;;3.20;2.45;;;14.80;67.40;;;;;;5094790;28;20043;-76
2021/05/17 04:55:14;;;;;;;2.72;2.53;;;14.80;67.50;;;;;;5076546;28;20126;-77
2021/05/17 04:57:40;;;;;;;3.42;2.05;;;14.70;67.90;;;;;;5088960;28;20103;-77
2021/05/17 05:00:09;;;;;;;8.07;1.80;;;14.70;67.70;;;;;;5077130;28;20028;-78
2021/05/17 05:02:36;;;;;;;2.25;2.03;;;14.70;67.90;;;;;;5089844;28;20035;-77
2021/05/17 05:05:03;;;;;;;2.90;1.42;;;14.70;68.10;;;;;;5085557;28;20062;-78
2021/05/17 05:07:29;;;;;;;1.60;1.50;;;14.60;67.80;;;;;;5086829;28;20028;-78
2021/05/17 05:09:55;;;;;;;3.80;1.60;;;14.70;68.40;;;;;;5096678;28;20107;-77
2021/05/17 05:12:22;;;;;;;6.28;2.30;;;14.70;67.90;;;;;;5072390;28;20021;-77
2021/05/17 05:14:48;;;;;;;5.20;1.25;;;14.60;68.00;;;;;;5081146;28;20124;-77
2021/05/17 05:17:15;;;;;;;1.92;1.70;;;14.70;68.00;;;;;;5093317;28;20391;-77
2021/05/17 05:19:41;;;;;;;1.42;1.33;;;14.70;67.80;;;;;;5081292;28;20035;-77
2021/05/17 05:22:07;;;;;;;1.73;1.63;;;14.60;67.90;;;;;;5091300;28;20032;-77
2021/05/17 05:24:34;;;;;;;2.22;2.03;;;14.60;67.90;;;;;;5092233;28;20429;-77
2021/05/17 05:27:21;;;;;;;2.58;1.65;;;14.60;68.10;;;;;;5096530;28;20024;-78
2021/05/17 05:30:02;;;;;;;1.95;1.85;;;14.50;67.90;;;;;;5074950;28;20427;-77
2021/05/17 05:32:31;;;;;;;1.80;1.65;;;14.60;68.50;;;;;;5078715;28;20051;-77
2021/05/17 05:34:57;;;;;;;1.77;1.67;;;14.50;68.90;;;;;;5095889;28;20020;-76
2021/05/17 05:37:24;;;;;;;1.73;1.63;;;14.50;68.70;;;;;;5093691;28;20035;-80
2021/05/17 05:39:50;;;;;;;1.92;1.35;;;14.40;68.90;;;;;;5087854;28;20029;-79
2021/05/17 05:42:17;;;;;;;3.75;3.45;;;14.40;68.90;;;;;;5087032;28;20104;-79
2021/05/17 05:44:48;;;;;;;2.03;1.63;;;14.50;69.00;;;;;;5091797;28;20063;-78
2021/05/17 05:47:16;;;;;;;1.67;1.58;;;14.50;69.30;;;;;;5073942;28;20031;-79
2021/05/17 05:49:44;;;;;;;5.38;2.85;;;14.40;69.20;;;;;;5072230;28;20047;-79
2021/05/17 05:52:11;;;;;;;1.77;1.65;;;14.40;69.60;;;;;;5089252;28;20028;-79
2021/05/17 05:54:37;;;;;;;2.85;1.95;;;14.50;69.70;;;;;;5091073;28;20056;-77
2021/05/17 05:57:06;;;;;;;1.98;1.80;;;14.30;70.00;;;;;;5089449;28;20042;-79
2021/05/17 05:59:33;;;;;;;1.55;1.45;;;14.40;69.80;;;;;;5066210;28;20032;-79
2021/05/17 06:01:59;;;;;;;3.50;2.20;;;14.40;69.30;;;;;;5084701;28;20080;-78
2021/05/17 06:04:26;;;;;;;1.90;1.80;;;14.40;69.60;;;;;;5090150;28;20024;-79
2021/05/17 06:06:53;;;;;;;1.30;1.20;;;14.30;69.70;;;;;;5075683;28;20047;-79
2021/05/17 06:09:19;;;;;;;2.75;2.13;;;14.30;69.60;;;;;;5092131;28;20028;-79
2021/05/17 06:11:45;;;;;;;3.53;1.98;;;14.30;70.40;;;;;;5085003;28;20031;-79
2021/05/17 06:14:12;;;;;;;1.42;1.33;;;14.30;69.90;;;;;;5076294;28;20028;-79
2021/05/17 06:16:39;;;;;;;2.15;1.40;;;14.40;70.00;;;;;;5089479;28;20032;-79
2021/05/17 06:19:06;;;;;;;1.70;1.48;;;14.50;69.80;;;;;;5091630;28;20447;-78
2021/05/17 06:21:33;;;;;;;1.58;1.48;;;14.40;69.90;;;;;;5095173;28;20036;-79
2021/05/17 06:24:00;;;;;;;1.85;1.75;;;14.30;69.60;;;;;;5076909;28;20035;-78
2021/05/17 06:26:27;;;;;;;1.83;1.67;;;14.40;69.80;;;;;;5094246;28;20031;-77
2021/05/17 06:28:55;;;;;;;1.45;1.35;;;14.40;69.60;;;;;;5091409;28;20352;-78
2021/05/17 06:31:22;;;;;;;1.40;1.30;;;14.40;69.60;;;;;;5082539;28;20020;-78
2021/05/17 06:33:50;;;;;;;1.52;1.42;;;14.30;69.60;;;;;;5095055;28;20048;-79
2021/05/17 06:36:17;;;;;;;1.92;1.50;;;14.30;69.90;;;;;;5085463;28;20029;-78
2021/05/17 06:38:44;;;;;;;1.48;1.38;;;14.30;69.50;;;;;;5085226;28;20115;-79
2021/05/17 06:41:12;;;;;;;3.53;1.60;;;14.30;69.80;;;;;;5091791;28;20031;-78
2021/05/17 06:43:39;;;;;;;1.55;1.45;;;14.30;69.50;;;;;;5071764;28;20031;-79
2021/05/17 06:46:09;;;;;;;1.33;1.20;;;14.30;69.70;;;;;;5075184;28;20124;-79
2021/05/17 06:48:46;;;;;;;4.53;1.73;;;14.30;69.50;;;;;;5074557;28;20024;-79
2021/05/17 06:51:19;;;;;;;1.40;1.30;;;14.30;69.60;;;;;;5094397;28;20089;-80
2021/05/17 06:53:48;;;;;;;1.42;1.33;;;14.20;69.40;;;;;;5094831;28;20455;-79
2021/05/17 06:56:22;;;;;;;1.70;1.60;;;14.30;69.70;;;;;;5092788;28;20038;-80
2021/05/17 06:58:59;;;;;;;1.40;1.30;;;14.20;69.30;;;;;;5096585;28;20016;-80
2021/05/17 07:01:28;;;;;;;2.03;1.30;;;14.20;69.20;;;;;;5086704;28;20016;-78
2021/05/17 07:03:57;;;;;;;1.00;1.00;;;14.30;68.90;;;;;;5093842;28;20031;-78
2021/05/17 07:06:30;;;;;;;1.42;1.42;;;14.20;68.70;;;;;;5098049;28;20043;-79
2021/05/17 07:11:51;;;;;;;1.58;1.23;;;14.20;68.80;;;;;;5096152;28;20046;-79
2021/05/17 07:14:18;;;;;;;1.20;1.10;;;14.20;68.60;;;;;;5077882;28;20027;-79
2021/05/17 07:16:45;;;;;;;1.38;1.38;;;14.20;68.60;;;;;;5069823;28;20107;-81
2021/05/17 07:19:12;;;;;;;1.10;1.10;;;14.20;68.60;;;;;;5095447;28;20122;-81
2021/05/17 07:24:24;;;;;;;1.20;1.20;;;14.10;68.00;;;;;;5093045;28;20078;-79
2021/05/17 07:26:51;;;;;;;1.13;1.10;;;14.20;67.90;;;;;;5070286;28;20379;-81
2021/05/17 07:29:19;;;;;;;2.65;1.80;;;14.30;67.70;;;;;;5092391;28;20039;-80
2021/05/17 07:31:47;;;;;;;1.17;1.17;;;14.20;67.70;;;;;;5090779;28;20030;-81
2021/05/17 07:34:14;;;;;;;1.63;1.52;;;14.10;67.90;;;;;;5073955;28;20096;-80
2021/05/17 07:36:40;;;;;;;2.38;1.58;;;14.10;68.30;;;;;;5091926;28;20110;-80
2021/05/17 07:39:08;;;;;;;1.52;1.42;;;14.20;68.10;;;;;;5093832;28;20035;-81
2021/05/17 07:41:35;;;;;;;4.13;1.55;;;14.20;68.10;;;;;;5094447;28;20016;-79
2021/05/17 07:44:02;;;;;;;1.02;1.02;;;14.30;67.70;;;;;;5094237;28;20027;-79
2021/05/17 07:46:28;;;;;;;1.20;1.20;;;14.30;67.30;;;;;;5073734;28;20035;-79
2021/05/17 07:49:16;;;;;;;1.50;1.40;;;14.30;67.80;;;;;;5092663;28;20493;-78
2021/05/17 07:51:44;;;;;;;1.77;1.67;;;14.20;68.00;;;;;;5073918;28;20157;-79
2021/05/17 07:54:18;;;;;;;1.60;1.50;;;14.10;68.40;;;;;;5076413;28;20028;-79
2021/05/17 07:56:45;;;;;;;1.63;1.33;;;14.20;68.30;;;;;;5097907;28;20028;-79
2021/05/17 07:59:11;;;;;;;1.65;1.63;;;14.30;68.20;;;;;;5093353;28;20032;-79
2021/05/17 08:01:38;;;;;;;1.00;1.00;;;14.20;68.00;;;;;;5088433;28;20078;-79
2021/05/17 08:04:04;;;;;;;1.00;1.00;;;14.30;68.20;;;;;;5078052;28;20024;-79
2021/05/17 08:06:31;;;;;;;1.55;1.48;;;14.30;67.80;;;;;;5076943;28;20466;-79
2021/05/17 08:08:57;;;;;;;1.15;1.15;;;14.20;68.00;;;;;;5101977;28;20034;-78
2021/05/17 08:11:24;;;;;;;1.00;1.00;;;14.10;68.30;;;;;;5093996;28;20035;-79
2021/05/17 08:13:50;;;;;;;1.58;1.48;;;14.20;68.00;;;;;;5073338;28;20021;-79
2021/05/17 08:16:16;;;;;;;1.02;1.02;;;14.30;67.90;;;;;;5092424;28;20016;-78
2021/05/17 08:18:44;;;;;;;1.10;1.10;;;14.20;67.40;;;;;;5093453;28;20051;-78
2021/05/17 08:21:10;;;;;;;1.48;1.38;;;14.20;67.70;;;;;;5091035;28;20036;-78
2021/05/17 08:23:38;;;;;;;1.10;1.10;;;14.20;68.00;;;;;;5083975;28;20016;-79
2021/05/17 08:26:07;;;;;;;1.05;1.05;;;14.40;67.10;;;;;;5093272;28;20032;-79
2021/05/17 08:28:35;;;;;;;1.05;1.05;;;14.30;67.10;;;;;;5090473;28;20025;-79
2021/05/17 08:31:03;;;;;;;1.30;1.10;;;14.20;67.70;;;;;;5093623;28;20052;-81
2021/05/17 08:33:30;;;;;;;1.02;1.02;;;14.30;67.70;;;;;;5093347;28;20103;-78
2021/05/17 08:35:57;;;;;;;1.20;1.20;;;14.20;67.90;;;;;;5084540;28;20486;-79
2021/05/17 08:38:23;;;;;;;2.35;1.23;;;14.30;67.70;;;;;;5094936;28;20066;-79
2021/05/17 08:40:50;;;;;;;1.27;1.17;;;14.30;67.60;;;;;;5088355;28;20035;-79
2021/05/17 08:43:16;;;;;;;1.25;1.25;;;14.30;67.50;;;;;;5097165;28;20034;-79
2021/05/17 08:45:45;;;;;;;1.48;1.20;;;14.20;68.00;;;;;;5073922;28;20027;-79
2021/05/17 08:48:12;;;;;;;1.88;1.10;;;14.20;67.80;;;;;;5077487;28;20025;-79
2021/05/17 08:50:38;;;;;;;1.20;1.20;;;14.20;67.90;;;;;;5093133;28;20020;-79
2021/05/17 08:53:05;;;;;;;1.85;1.58;;;14.20;67.80;;;;;;5096714;28;20032;-79
2021/05/17 08:55:32;;;;;;;1.10;1.10;;;14.20;68.10;;;;;;5069262;28;20086;-79
2021/05/17 08:57:58;;;;;;;1.00;1.00;;;14.20;67.90;;;;;;5095515;28;20020;-79
2021/05/17 09:00:25;;;;;;;1.08;1.08;;;14.20;68.00;;;;;;5077321;28;20411;-79
2021/05/17 09:02:53;;;;;;;1.15;1.05;;;14.40;67.40;;;;;;5096547;28;20489;-79
2021/05/17 09:05:23;;;;;;;1.20;1.13;;;14.10;67.50;;;;;;5078935;28;20457;-79
2021/05/17 09:07:52;;;;;;;1.10;1.10;;;14.30;67.80;;;;;;5072852;28;20459;-79
2021/05/17 09:10:29;;;;;;;0.80;0.80;;;14.20;67.80;;;;;;5081827;28;20016;-78
2021/05/17 09:13:08;;;;;;;1.02;1.02;;;14.10;68.40;;;;;;5090973;28;20558;-79
2021/05/17 09:15:37;;;;;;;1.55;1.45;;;14.20;68.20;;;;;;5087524;28;20051;-78
2021/05/17 09:18:11;;;;;;;0.80;0.80;;;14.30;67.90;;;;;;5075019;28;20135;-78
2021/05/17 09:20:38;;;;;;;1.50;1.40;;;14.20;67.70;;;;;;5074630;28;20492;-78
2021/05/17 09:23:12;;;;;;;2.78;1.27;;;14.40;67.70;;;;;;5076233;28;20350;-78
2021/05/17 09:25:54;;;;;;;1.25;1.25;;;14.30;67.80;;;;;;5076029;28;20016;-78
2021/05/17 09:28:30;;;;;;;1.02;1.02;;;14.30;67.80;;;;;;5075910;28;20035;-78
2021/05/17 09:31:20;;;;;;;1.00;1.00;;;14.40;67.50;;;;;;5076919;28;20036;-79
2021/05/17 09:33:48;;;;;;;3.22;2.55;;;14.30;67.60;;;;;;5058491;28;20371;-79
2021/05/17 09:36:30;;;;;;;1.02;1.02;;;14.30;67.50;;;;;;5039836;28;20028;-79
2021/05/17 09:39:08;;;;;;;3.03;1.25;;;14.40;67.80;;;;;;5053745;28;20032;-79
2021/05/17 09:41:46;;;;;;;1.50;1.50;;;14.30;67.80;;;;;;5082175;28;20031;-79
2021/05/17 09:44:15;;;;;;;1.88;1.77;;;14.50;67.90;;;;;;5068696;28;20033;-78
2021/05/17 09:47:01;;;;;;;1.40;1.30;;;14.40;67.80;;;;;;5073717;28;20501;-78
2021/05/17 09:49:39;;;;;;;0.90;0.90;;;14.30;68.50;;;;;;5074496;28;20041;-79
2021/05/17 09:52:14;;;;;;;1.60;1.50;;;14.30;68.30;;;;;;5075739;28;20052;-78
2021/05/17 09:54:52;;;;;;;1.00;1.00;;;14.30;68.50;;;;;;5083829;28;20028;-79
2021/05/17 09:57:31;;;;;;;1.35;1.35;;;14.30;69.00;;;;;;5075555;28;20033;-79
2021/05/17 10:00:04;;;;;;;1.17;1.17;;;14.30;69.30;;;;;;5039452;28;20033;-78
2021/05/17 10:02:40;;;;;;;1.35;1.30;;;14.30;69.60;;;;;;5070239;28;20074;-78
2021/05/17 10:05:16;;;;;;;1.08;1.08;;;14.40;69.40;;;;;;5073883;28;20074;-79
2021/05/17 10:07:46;;;;;;;0.95;0.95;;;14.40;69.30;;;;;;5047565;28;20040;-79
2021/05/17 10:10:14;;;;;;;0.98;0.98;;;14.20;69.30;;;;;;5055596;28;20040;-80
2021/05/17 10:12:41;;;;;;;2.58;1.30;;;14.10;70.00;;;;;;5075243;28;20180;-79
2021/05/17 10:15:11;;;;;;;1.10;1.10;;;14.10;70.20;;;;;;5072910;28;20039;-79
2021/05/17 10:17:38;;;;;;;1.27;1.08;;;14.20;69.70;;;;;;5073340;28;20055;-80
2021/05/17 10:20:13;;;;;;;2.00;1.13;;;14.10;70.30;;;;;;5073036;28;20348;-80
2021/05/17 10:22:41;;;;;;;1.10;1.10;;;14.30;69.70;;;;;;5073457;28;20059;-79
2021/05/17 10:25:09;;;;;;;2.40;0.98;;;14.30;70.20;;;;;;5037866;28;20120;-80
2021/05/17 10:27:46;;;;;;;1.88;1.73;;;14.30;69.90;;;;;;5074908;28;20099;-79
2021/05/17 10:30:14;;;;;;;1.08;1.08;;;14.40;69.90;;;;;;5060939;28;20032;-79
2021/05/17 10:32:43;;;;;;;1.13;1.13;;;14.50;69.40;;;;;;5066539;28;20020;-79
2021/05/17 10:35:14;;;;;;;1.45;1.35;;;14.40;69.50;;;;;;5064520;28;20025;-80
2021/05/17 10:37:46;;;;;;;0.98;0.98;;;14.40;69.00;;;;;;5075113;28;20364;-79
2021/05/17 10:40:41;;;;;;;1.23;1.13;;;14.30;69.40;;;;;;5067856;28;20081;-78
2021/05/17 10:48:27;;;;;;;1.20;1.20;;;14.40;69.20;;;;;;5074435;28;20107;-79
2021/05/17 10:51:20;;;;;;;1.20;1.20;;;14.40;68.90;;;;;;5056832;28;20085;-79
2021/05/17 10:53:53;;;;;;;1.08;1.08;;;14.30;69.30;;;;;;5045602;28;20039;-79
2021/05/17 11:02:15;;;;;;;1.02;1.02;;;14.20;70.10;;;;;;5073152;28;20036;-78
2021/05/17 11:04:47;;;;;;;1.17;1.17;;;14.30;70.00;;;;;;5074201;28;20031;-78
2021/05/17 11:07:19;;;;;;;2.17;1.63;;;14.20;70.30;;;;;;5076762;28;20032;-77
2021/05/17 11:10:07;;;;;;;2.10;1.48;;;14.20;70.30;;;;;;5073331;28;20029;-78
2021/05/17 11:12:53;;;;;;;1.77;1.67;;;14.30;69.90;;;;;;5068343;28;20048;-78
2021/05/17 11:15:22;;;;;;;1.15;1.15;;;14.30;70.30;;;;;;5066345;28;20463;-79
2021/05/17 11:18:03;;;;;;;1.30;1.20;;;14.40;69.70;;;;;;5044441;28;20064;-78
2021/05/17 11:20:45;;;;;;;2.90;1.40;;;14.10;70.30;;;;;;5052417;28;20351;-79
2021/05/17 11:23:27;;;;;;;2.58;1.10;;;14.10;70.60;;;;;;5054831;28;20032;-77
2021/05/17 11:25:57;;;;;;;1.40;1.30;;;14.20;70.10;;;;;;5058002;28;20024;-78
2021/05/17 11:28:36;;;;;;;1.65;1.55;;;14.20;70.00;;;;;;5049848;28;20107;-79
2021/05/17 11:31:14;;;;;;;1.40;1.30;;;14.10;70.00;;;;;;5072869;28;20025;-79
2021/05/17 11:33:51;;;;;;;7.97;1.95;;;14.00;70.30;;;;;;5067280;28;20027;-79
2021/05/17 11:36:20;;;;;;;1.30;1.30;;;14.10;70.20;;;;;;5074302;28;20359;-79
2021/05/17 11:39:10;;;;;;;2.42;0.98;;;14.10;70.30;;;;;;5045509;28;20104;-80
2021/05/17 11:42:02;;;;;;;2.75;1.40;;;14.10;70.50;;;;;;5068978;28;20021;-79
2021/05/17 11:44:38;;;;;;;0.90;0.90;;;14.20;69.70;;;;;;5066010;28;20020;-79
2021/05/17 11:47:20;;;;;;;1.45;1.10;;;14.20;70.30;;;;;;5073168;28;20039;-79
2021/05/17 11:49:47;;;;;;;3.35;1.00;;;14.30;69.50;;;;;;5056047;28;20025;-80
2021/05/17 11:52:28;;;;;;;1.40;1.40;;;14.30;69.60;;;;;;5063679;28;20792;-80
2021/05/17 11:54:57;;;;;;;1.65;1.55;;;14.30;69.70;;;;;;5067638;28;20056;-78
2021/05/17 11:57:28;;;;;;;7.95;2.00;;;14.40;69.10;;;;;;5072521;28;20129;-78
2021/05/17 11:59:55;;;;;;;1.80;1.45;;;14.40;69.00;;;;;;5072287;28;20443;-78
2021/05/17 12:02:21;;;;;;;1.10;1.02;;;14.40;68.80;;;;;;5071257;28;20086;-78
2021/05/17 12:04:48;;;;;;;1.33;1.20;;;14.40;68.60;;;;;;5054664;28;20083;-77
2021/05/17 12:07:16;;;;;;;1.10;1.10;;;14.50;68.90;;;;;;5074998;28;20052;-77
2021/05/17 12:09:54;;;;;;;1.20;1.20;;;14.40;68.80;;;;;;5073766;28;20348;-78
2021/05/17 12:12:28;;;;;;;1.33;1.33;;;14.20;69.00;;;;;;5051105;28;20509;-77
2021/05/17 12:14:57;;;;;;;1.58;1.48;;;14.30;69.30;;;;;;5092191;28;20036;-78
2021/05/17 12:17:41;;;;;;;2.90;1.30;;;14.20;69.00;;;;;;5079110;28;20093;-78
2021/05/17 12:20:11;;;;;;;1.13;1.00;;;14.20;69.00;;;;;;5070369;28;20471;-79
2021/05/17 12:22:44;;;;;;;1.58;1.42;;;14.10;69.40;;;;;;5066276;28;20452;-79
2021/05/17 12:25:22;;;;;;;5.25;2.35;;;14.10;69.40;;;;;;5076463;28;20043;-79
2021/05/17 12:27:50;;;;;;;3.13;1.45;;;14.30;69.30;;;;;;5076106;28;20355;-80
2021/05/17 12:30:18;;;;;;;2.53;1.70;;;14.20;69.90;;;;;;5061527;28;20028;-79
2021/05/17 12:32:53;;;;;;;1.50;1.48;;;14.00;69.80;;;;;;5080703;28;20067;-79
2021/05/17 12:35:32;;;;;;;1.05;1.05;;;14.00;70.60;;;;;;5066365;28;20085;-79
2021/05/17 12:38:05;;;;;;;1.15;1.05;;;14.30;69.40;;;;;;5071372;28;20044;-79
2021/05/17 12:40:34;;;;;;;;;;;14.40;69.20;;;;;;5070516;28;20029;-79
2021/05/17 12:43:06;;;;;;;3.67;1.50;;;14.50;68.90;;;;;;5073097;28;19962;-80
2021/05/17 12:45:34;;;;;;;1.33;1.23;;;14.60;68.40;;;;;;5077009;28;20025;-79
2021/05/17 12:48:06;;;;;;;1.30;1.20;;;14.40;68.60;;;;;;5059115;28;20021;-79
2021/05/17 12:50:34;;;;;;;2.15;1.20;;;14.30;69.00;;;;;;5055420;28;20032;-80
2021/05/17 12:53:07;;;;;;;1.08;1.08;;;14.20;69.70;;;;;;5078606;28;20444;-80
2021/05/17 12:55:47;;;;;;;0.90;0.90;;;14.20;69.60;;;;;;5061748;28;20467;-79
2021/05/17 12:58:24;;;;;;;1.38;1.27;;;14.30;68.80;;;;;;5072994;28;20033;-79
2021/05/17 13:00:52;;;;;;;3.28;1.40;;;14.40;68.40;;;;;;5051083;28;20039;-79
2021/05/17 13:03:26;;;;;;;1.00;1.00;;;14.40;68.60;;;;;;5073286;28;20025;-78
2021/05/17 13:06:31;;;;;;;1.27;1.17;;;14.30;69.20;;;;;;5059210;28;20084;-79
2021/05/17 13:09:07;;;;;;;1.42;1.33;;;14.30;69.00;;;;;;5057462;28;20563;-79
2021/05/17 13:11:42;;;;;;;3.90;1.50;;;14.30;69.00;;;;;;5061244;28;20099;-78
2021/05/17 13:14:14;;;;;;;1.30;1.20;;;14.30;69.30;;;;;;5074285;28;20025;-79
2021/05/17 13:16:40;;;;;;;;;;;14.30;68.90;;;;;;5070095;28;20027;-78
2021/05/17 13:19:23;;;;;;;4.35;1.25;;;14.20;69.90;;;;;;5058618;28;19908;-79
2021/05/17 13:22:37;;;;;;;1.40;1.30;;;14.20;69.40;;;;;;5051491;28;20530;-78
2021/05/17 13:31:03;;;;;;;2.42;1.27;;;14.10;70.60;;;;;;5076362;28;20055;-79